createdAt,value
2023-01-02T00:01:40.166Z,10.41
2023-01-02T00:04:37.011Z,10.41
2023-01-02T00:07:33.829Z,10.30
2023-01-02T00:10:30.704Z,10.16
2023-01-02T00:13:27.711Z,10.15
2023-01-02T00:16:24.965Z,10.19
2023-01-02T00:19:21.900Z,10.13
2023-01-02T00:22:18.717Z,10.17
2023-01-02T00:25:15.635Z,10.16
2023-01-02T00:28:12.472Z,10.12
2023-01-02T00:31:13.360Z,10.16
2023-01-02T00:34:10.288Z,10.21
2023-01-02T00:37:07.127Z,10.21
2023-01-02T00:40:04.956Z,10.08
2023-01-02T00:43:02.070Z,10.15
2023-01-02T00:45:58.876Z,10.03
2023-01-02T00:48:55.735Z,10.07
2023-01-02T00:51:52.531Z,10.23
2023-01-02T00:54:49.354Z,10.14
2023-01-02T00:57:46.177Z,10.09
2023-01-02T01:00:43.015Z,10.14
2023-01-02T01:03:43.304Z,10.08
2023-01-02T01:06:40.123Z,10.07
2023-01-02T01:09:36.960Z,9.95
2023-01-02T01:12:33.794Z,10.23
2023-01-02T01:15:30.614Z,10.06
2023-01-02T01:18:27.428Z,9.94
2023-01-02T01:21:24.651Z,9.81
2023-01-02T01:24:21.487Z,9.72
2023-01-02T01:27:18.523Z,9.73
2023-01-02T01:30:15.336Z,9.43
2023-01-02T01:33:12.154Z,9.47
2023-01-02T01:36:20.702Z,9.50
2023-01-02T01:39:17.522Z,9.53
2023-01-02T01:42:14.996Z,9.40
2023-01-02T01:45:15.084Z,9.60
2023-01-02T01:48:17.477Z,9.42
2023-01-02T01:51:15.674Z,9.65
2023-01-02T01:54:17.380Z,9.74
2023-01-02T01:57:51.483Z,9.64
2023-01-02T02:00:48.911Z,9.51
2023-01-02T02:03:49.986Z,9.34
2023-01-02T02:06:48.951Z,9.62
2023-01-02T02:09:56.167Z,9.44
2023-01-02T02:12:53.004Z,9.41
2023-01-02T02:16:10.090Z,9.55
2023-01-02T02:19:59.939Z,9.54
2023-01-02T02:23:45.956Z,9.32
2023-01-02T02:27:08.912Z,9.46
2023-01-02T02:30:23.577Z,9.46
2023-01-02T02:33:55.913Z,9.29
2023-01-02T02:37:06.446Z,9.61
2023-01-02T02:40:34.943Z,9.55
2023-01-02T02:43:52.838Z,9.45
2023-01-02T02:47:01.445Z,9.25
2023-01-02T02:50:26.812Z,9.34
2023-01-02T02:53:34.541Z,9.18
2023-01-02T02:56:32.008Z,9.27
2023-01-02T02:59:29.375Z,9.19
2023-01-02T03:02:26.409Z,8.98
2023-01-02T03:05:41.176Z,9.10
2023-01-02T03:08:59.626Z,9.39
2023-01-02T03:12:26.070Z,8.99
2023-01-02T03:16:26.631Z,8.86
2023-01-02T03:19:36.764Z,8.78
2023-01-02T03:22:39.073Z,8.57
2023-01-02T03:25:37.062Z,8.58
2023-01-02T03:28:37.222Z,8.21
2023-01-02T03:31:39.657Z,8.39
2023-01-02T03:34:38.794Z,8.37
2023-01-02T03:37:40.218Z,8.03
2023-01-02T03:40:47.247Z,8.19
2023-01-02T03:43:48.969Z,7.98
2023-01-02T03:47:10.706Z,8.02
2023-01-02T03:50:32.155Z,8.01
2023-01-02T03:53:31.670Z,7.90
2023-01-02T03:57:10.174Z,7.61
2023-01-02T04:00:17.614Z,7.84
2023-01-02T04:03:23.138Z,7.69
2023-01-02T04:06:32.608Z,7.64
2023-01-02T04:09:35.092Z,7.70
2023-01-02T04:12:35.995Z,7.52
2023-01-02T04:15:36.409Z,7.54
2023-01-02T04:18:46.600Z,7.44
2023-01-02T04:21:45.825Z,7.68
2023-01-02T04:24:48.485Z,7.48
2023-01-02T04:27:59.577Z,7.40
2023-01-02T04:31:20.500Z,7.49
2023-01-02T04:34:18.421Z,7.60
2023-01-02T04:37:50.875Z,7.93
2023-01-02T04:40:48.701Z,8.18
2023-01-02T04:43:45.518Z,8.22
2023-01-02T04:46:43.455Z,8.09
2023-01-02T04:49:40.326Z,8.17
2023-01-02T04:52:37.744Z,8.29
2023-01-02T04:55:34.652Z,8.27
2023-01-02T04:58:31.528Z,8.69
2023-01-02T05:01:28.445Z,8.66
2023-01-02T05:04:25.353Z,8.51
2023-01-02T05:07:22.174Z,8.43
2023-01-02T05:10:19.054Z,8.74
2023-01-02T05:13:15.876Z,8.44
2023-01-02T05:16:12.873Z,8.88
2023-01-02T05:19:09.823Z,8.62
2023-01-02T05:22:25.058Z,8.63
2023-01-02T05:25:21.915Z,8.60
2023-01-02T05:28:18.744Z,8.67
2023-01-02T05:31:15.984Z,9.01
2023-01-02T05:34:16.025Z,8.81
2023-01-02T05:37:12.856Z,9.04
2023-01-02T05:40:10.909Z,9.25
2023-01-02T05:43:07.740Z,9.02
2023-01-02T05:46:13.774Z,9.16
2023-01-02T05:49:11.672Z,8.98
2023-01-02T05:52:08.565Z,9.15
2023-01-02T05:55:05.632Z,9.19
2023-01-02T05:58:02.554Z,9.36
2023-01-02T06:01:05.554Z,9.23
2023-01-02T06:04:02.530Z,9.10
2023-01-02T06:06:59.520Z,9.08
2023-01-02T06:09:56.345Z,9.27
2023-01-02T06:12:53.173Z,9.48
2023-01-02T06:15:49.982Z,9.77
2023-01-02T06:18:47.328Z,9.50
2023-01-02T06:21:44.143Z,9.41
2023-01-02T06:24:41.079Z,9.41
2023-01-02T06:27:37.912Z,9.25
2023-01-02T06:30:35.031Z,9.15
2023-01-02T06:33:32.107Z,9.16
2023-01-02T06:36:34.190Z,9.29
2023-01-02T06:39:31.032Z,9.36
2023-01-02T06:42:27.863Z,9.31
2023-01-02T06:45:24.840Z,9.12
2023-01-02T06:48:21.684Z,9.00
2023-01-02T06:51:22.675Z,8.97
2023-01-02T06:54:19.502Z,8.81
2023-01-02T06:57:16.785Z,8.99
2023-01-02T07:00:14.526Z,8.76
2023-01-02T07:03:11.534Z,8.80
2023-01-02T07:06:13.921Z,8.74
2023-01-02T07:09:10.767Z,8.94
2023-01-02T07:12:07.614Z,8.92
2023-01-02T07:15:06.481Z,8.72
2023-01-02T07:18:03.370Z,8.90
2023-01-02T07:21:00.211Z,8.70
2023-01-02T07:23:57.056Z,8.75
2023-01-02T07:26:53.850Z,9.05
2023-01-02T07:29:50.670Z,8.95
2023-01-02T07:32:47.488Z,9.19
2023-01-02T07:35:45.354Z,9.15
2023-01-02T07:38:42.278Z,8.91
2023-01-02T07:41:39.063Z,8.88
2023-01-02T07:44:35.899Z,9.07
2023-01-02T07:47:32.740Z,9.15
2023-01-02T07:50:29.615Z,9.08
2023-01-02T07:53:26.443Z,9.08
2023-01-02T07:56:23.604Z,9.19
2023-01-02T07:59:20.472Z,9.17
2023-01-02T08:02:17.403Z,9.24
2023-01-02T08:05:14.277Z,9.21
2023-01-02T08:08:11.133Z,9.19
2023-01-02T08:11:17.892Z,9.23
2023-01-02T08:14:19.887Z,9.35
2023-01-02T08:17:20.028Z,9.33
2023-01-02T08:20:17.012Z,9.32
2023-01-02T08:23:14.296Z,9.39
2023-01-02T08:26:11.936Z,9.28
2023-01-02T08:29:09.381Z,9.43
2023-01-02T08:32:06.249Z,9.46
2023-01-02T08:35:03.732Z,9.52
2023-01-02T08:38:00.558Z,9.46
2023-01-02T08:41:01.364Z,9.61
2023-01-02T08:43:58.798Z,10.04
2023-01-02T08:46:55.657Z,10.09
2023-01-02T08:49:52.495Z,9.86
2023-01-02T08:52:49.339Z,9.76
2023-01-02T08:55:46.170Z,9.81
2023-01-02T08:58:46.211Z,9.85
2023-01-02T09:01:45.903Z,9.79
2023-01-02T09:04:42.820Z,9.96
2023-01-02T09:07:39.642Z,9.91
2023-01-02T09:10:36.780Z,9.97
2023-01-02T09:13:33.860Z,9.89
2023-01-02T09:16:31.521Z,9.90
2023-01-02T09:19:28.384Z,9.78
2023-01-02T09:22:25.200Z,9.88
2023-01-02T09:25:24.308Z,9.72
2023-01-02T09:28:21.296Z,9.82
2023-01-02T09:31:19.083Z,9.87
2023-01-02T09:34:15.963Z,9.62
2023-01-02T09:37:12.876Z,9.94
2023-01-02T09:40:11.728Z,9.95
2023-01-02T09:43:11.021Z,10.22
2023-01-02T09:46:21.240Z,10.43
2023-01-02T09:49:56.609Z,10.37
2023-01-02T09:53:00.613Z,10.63
2023-01-02T09:56:06.871Z,10.78
2023-01-02T09:59:28.444Z,10.81
2023-01-02T10:03:16.437Z,10.66
2023-01-02T10:06:24.921Z,10.72
2023-01-02T10:09:40.673Z,10.70
2023-01-02T10:13:11.207Z,10.77
2023-01-02T10:16:16.875Z,10.78
2023-01-02T10:19:27.825Z,10.72
2023-01-02T10:22:53.443Z,10.64
2023-01-02T10:26:04.706Z,10.77
2023-01-02T10:29:30.559Z,10.76
2023-01-02T10:32:28.223Z,10.84
2023-01-02T10:35:59.942Z,10.69
2023-01-02T10:39:01.086Z,10.71
2023-01-02T10:41:59.618Z,10.65
2023-01-02T10:44:56.443Z,10.74
2023-01-02T10:47:53.307Z,10.61
2023-01-02T10:51:00.820Z,10.54
2023-01-02T10:54:11.696Z,10.64
2023-01-02T10:57:20.476Z,10.72
2023-01-02T11:00:25.645Z,10.73
2023-01-02T11:03:27.997Z,10.62
2023-01-02T11:06:38.993Z,10.69
2023-01-02T11:09:37.068Z,10.74
2023-01-02T11:12:47.964Z,10.96
2023-01-02T11:15:59.781Z,11.08
2023-01-02T11:18:59.076Z,11.02
2023-01-02T11:21:57.316Z,11.08
2023-01-02T11:25:17.253Z,11.02
2023-01-02T11:28:26.977Z,11.07
2023-01-02T11:31:24.503Z,11.22
2023-01-02T11:34:37.907Z,11.05
2023-01-02T11:37:35.015Z,11.07
2023-01-02T11:40:32.886Z,11.10
2023-01-02T11:43:51.907Z,11.17
2023-01-02T11:46:50.645Z,11.30
2023-01-02T11:49:50.678Z,11.31
2023-01-02T11:53:12.256Z,11.22
2023-01-02T11:56:33.452Z,11.12
2023-01-02T11:59:41.006Z,11.23
2023-01-02T12:02:42.999Z,11.29
2023-01-02T12:05:54.801Z,11.34
2023-01-02T12:09:14.343Z,11.45
2023-01-02T12:13:15.821Z,11.36
2023-01-02T12:16:52.274Z,11.63
2023-01-02T12:20:28.334Z,11.68
2023-01-02T12:24:11.299Z,11.74
2023-01-02T12:27:15.260Z,11.91
2023-01-02T12:30:21.091Z,11.96
2023-01-02T12:33:53.149Z,11.91
2023-01-02T12:37:01.057Z,11.93
2023-01-02T12:40:35.686Z,11.93
2023-01-02T12:44:33.581Z,11.76
2023-01-02T12:48:28.263Z,11.73
2023-01-02T12:51:51.604Z,11.68
2023-01-02T12:55:20.701Z,11.75
2023-01-02T12:58:36.884Z,11.77
2023-01-02T13:01:46.345Z,11.68
2023-01-02T13:04:51.158Z,11.63
2023-01-02T13:07:54.961Z,11.64
2023-01-02T13:10:53.402Z,11.53
2023-01-02T13:13:50.268Z,11.56
2023-01-02T13:17:26.420Z,11.50
2023-01-02T13:20:54.530Z,11.50
2023-01-02T13:23:51.969Z,11.51
2023-01-02T13:26:49.412Z,11.47
2023-01-02T13:29:46.495Z,11.51
2023-01-02T13:32:43.851Z,11.54
2023-01-02T13:35:40.853Z,11.58
2023-01-02T13:38:37.836Z,11.51
2023-01-02T13:41:59.005Z,11.53
2023-01-02T13:45:00.177Z,11.51
2023-01-02T13:48:01.745Z,11.54
2023-01-02T13:51:23.669Z,11.49
2023-01-02T13:54:34.420Z,11.47
2023-01-02T13:57:32.360Z,11.43
2023-01-02T14:00:38.585Z,11.38
2023-01-02T14:03:36.696Z,11.29
2023-01-02T14:06:45.115Z,11.26
2023-01-02T14:10:19.399Z,11.21
2023-01-02T14:13:37.149Z,11.10
2023-01-02T14:17:05.276Z,11.08
2023-01-02T14:20:18.206Z,11.09
2023-01-02T14:23:33.144Z,10.99
2023-01-02T14:26:41.602Z,10.98
2023-01-02T14:30:12.673Z,10.89
2023-01-02T14:33:16.125Z,10.87
2023-01-02T14:36:13.258Z,10.83
2023-01-02T14:39:35.430Z,10.81
2023-01-02T14:42:53.321Z,10.76
2023-01-02T14:45:55.768Z,10.73
2023-01-02T14:49:25.991Z,10.63
2023-01-02T14:52:37.507Z,10.56
2023-01-02T14:55:42.211Z,10.52
2023-01-02T14:58:45.583Z,10.49
2023-01-02T15:01:54.693Z,10.44
2023-01-02T15:04:57.697Z,10.42
2023-01-02T15:07:58.448Z,10.42
2023-01-02T15:11:20.525Z,10.36
2023-01-02T15:14:23.662Z,10.33
2023-01-02T15:17:24.291Z,10.33
2023-01-02T15:20:25.421Z,10.32
2023-01-02T15:23:27.029Z,10.34
2023-01-02T15:26:34.718Z,10.32
2023-01-02T15:29:31.766Z,10.29
2023-01-02T15:32:33.620Z,10.23
2023-01-02T15:35:35.032Z,10.24
2023-01-02T15:38:32.455Z,10.20
2023-01-02T15:41:29.299Z,10.22
2023-01-02T15:44:52.606Z,10.19
2023-01-02T15:47:51.711Z,10.18
2023-01-02T15:50:58.060Z,10.19
2023-01-02T15:54:03.025Z,10.15
2023-01-02T15:57:14.794Z,10.12
2023-01-02T16:00:40.062Z,10.14
2023-01-02T16:04:02.253Z,10.11
2023-01-02T16:06:59.387Z,10.14
2023-01-02T16:09:56.810Z,10.19
2023-01-02T16:13:29.340Z,10.12
2023-01-02T16:16:51.571Z,10.06
2023-01-02T16:19:59.950Z,10.13
2023-01-02T16:23:05.463Z,10.05
2023-01-02T16:26:06.258Z,10.07
2023-01-02T16:29:03.050Z,10.00
2023-01-02T16:32:01.708Z,9.98
2023-01-02T16:35:00.893Z,9.95
2023-01-02T16:38:18.976Z,9.94
2023-01-02T16:41:42.282Z,10.03
2023-01-02T16:44:41.948Z,10.04
2023-01-02T16:47:43.677Z,9.91
2023-01-02T16:50:44.520Z,10.00
2023-01-02T16:53:43.173Z,9.96
2023-01-02T16:56:40.411Z,9.88
2023-01-02T16:59:37.238Z,9.93
2023-01-02T17:02:34.121Z,9.97
2023-01-02T17:05:40.668Z,9.96
2023-01-02T17:08:37.513Z,9.98
2023-01-02T17:11:34.917Z,9.99
2023-01-02T17:14:34.071Z,9.97
2023-01-02T17:17:31.110Z,9.92
2023-01-02T17:20:28.693Z,9.96
2023-01-02T17:23:25.613Z,9.99
2023-01-02T17:26:22.605Z,9.94
2023-01-02T17:29:19.616Z,9.96
2023-01-02T17:32:16.508Z,9.98
2023-01-02T17:35:14.651Z,9.98
2023-01-02T17:38:11.579Z,9.96
2023-01-02T17:41:08.404Z,9.96
2023-01-02T17:44:05.427Z,9.86
2023-01-02T17:47:30.789Z,9.84
2023-01-02T17:50:19.176Z,9.89
2023-01-02T17:53:16.041Z,9.92
2023-01-02T17:56:20.436Z,9.86
2023-01-02T17:59:19.735Z,9.83
2023-01-02T18:02:18.387Z,9.85
2023-01-02T18:05:15.344Z,9.65
2023-01-02T18:08:12.172Z,9.68
2023-01-02T18:11:13.763Z,9.61
2023-01-02T18:14:25.056Z,9.34
2023-01-02T18:17:30.011Z,9.29
2023-01-02T18:20:27.684Z,9.27
2023-01-02T18:23:25.868Z,9.20
2023-01-02T18:26:24.402Z,9.21
2023-01-02T18:29:23.515Z,9.18
2023-01-02T18:32:32.231Z,8.95
2023-01-02T18:39:02.232Z,8.82
2023-01-02T18:42:15.356Z,8.88
2023-01-02T18:45:16.952Z,8.76
2023-01-02T18:48:17.787Z,8.74
2023-01-02T18:51:18.439Z,8.81
2023-01-02T18:54:35.475Z,8.69
2023-01-02T18:57:35.389Z,8.70
2023-01-02T19:00:33.990Z,8.86
2023-01-02T19:03:31.671Z,8.83
2023-01-02T19:06:40.635Z,8.75
2023-01-02T19:09:38.573Z,8.78
2023-01-02T19:13:04.661Z,8.73
2023-01-02T19:16:09.617Z,8.73
2023-01-02T19:19:14.222Z,8.64
2023-01-02T19:22:23.200Z,8.43
2023-01-02T19:25:22.628Z,8.22
2023-01-02T19:28:31.471Z,8.20
2023-01-02T19:31:44.474Z,8.33
2023-01-02T19:34:45.650Z,8.33
2023-01-02T19:37:44.090Z,8.19
2023-01-02T19:40:40.828Z,8.21
2023-01-02T19:43:37.603Z,8.04
2023-01-02T19:46:34.591Z,8.01
2023-01-02T19:49:31.415Z,7.88
2023-01-02T19:52:29.413Z,8.00
2023-01-02T19:55:26.166Z,7.96
2023-01-02T19:58:22.930Z,7.95
2023-01-02T20:01:21.371Z,7.88
2023-01-02T20:04:18.194Z,7.90
2023-01-02T20:07:14.942Z,7.94
2023-01-02T20:10:12.274Z,7.93
2023-01-02T20:13:09.057Z,8.00
2023-01-02T20:16:06.044Z,8.02
2023-01-02T20:19:03.963Z,8.07
2023-01-02T20:22:01.628Z,7.85
2023-01-02T20:24:58.607Z,7.80
2023-01-02T20:27:56.353Z,8.10
2023-01-02T20:30:53.274Z,7.68
2023-01-02T20:33:50.070Z,7.81
2023-01-02T20:36:46.971Z,7.60
2023-01-02T20:39:43.713Z,7.67
2023-01-02T20:42:40.456Z,7.65
2023-01-02T20:45:37.198Z,7.45
2023-01-02T20:48:33.980Z,7.55
2023-01-02T20:51:31.221Z,7.43
2023-01-02T20:54:28.014Z,7.51
2023-01-02T20:57:24.772Z,7.53
2023-01-02T21:00:21.531Z,7.43
2023-01-02T21:03:18.460Z,7.41
2023-01-02T21:06:16.089Z,7.50
2023-01-02T21:09:12.844Z,7.53
2023-01-02T21:12:29.597Z,7.60
2023-01-02T21:15:44.959Z,7.49
2023-01-02T21:18:41.830Z,7.17
2023-01-02T21:21:38.588Z,7.31
2023-01-02T21:24:35.332Z,7.24
2023-01-02T21:27:32.059Z,7.22
2023-01-02T21:30:28.805Z,7.26
2023-01-02T21:33:26.686Z,7.17
2023-01-02T21:36:23.538Z,7.06
2023-01-02T21:39:20.288Z,7.04
2023-01-02T21:42:17.270Z,7.08
2023-01-02T21:45:14.029Z,7.06
2023-01-02T21:48:10.853Z,6.93
2023-01-02T21:51:08.084Z,6.83
2023-01-02T21:54:04.853Z,6.86
2023-01-02T21:57:01.621Z,6.80
2023-01-02T21:59:58.405Z,6.80
2023-01-02T22:02:55.453Z,6.75
2023-01-02T22:05:53.822Z,6.89
2023-01-02T22:08:50.622Z,6.76
2023-01-02T22:11:56.516Z,6.73
2023-01-02T22:14:53.435Z,6.70
2023-01-02T22:17:50.189Z,6.73
2023-01-02T22:20:46.937Z,6.55
2023-01-02T22:23:43.692Z,6.52
2023-01-02T22:26:41.790Z,6.52
2023-01-02T22:30:18.683Z,6.58
2023-01-02T22:32:55.640Z,6.43
2023-01-02T22:35:52.409Z,6.44
2023-01-02T22:39:17.522Z,6.60
2023-01-02T22:42:58.940Z,6.45
2023-01-02T22:45:49.090Z,6.36
2023-01-02T22:48:46.706Z,6.48
2023-01-02T22:52:05.971Z,6.58
2023-01-02T22:55:06.508Z,6.44
2023-01-02T22:58:03.269Z,6.35
2023-01-02T23:01:02.625Z,6.45
2023-01-02T23:03:59.549Z,6.35
2023-01-02T23:10:13.200Z,6.45
2023-01-02T23:13:10.038Z,6.46
2023-01-02T23:16:25.417Z,6.53
2023-01-02T23:19:23.460Z,6.18
2023-01-02T23:22:20.231Z,6.32
2023-01-02T23:25:17.063Z,6.43
2023-01-02T23:28:32.286Z,6.40
2023-01-02T23:31:30.600Z,6.33
2023-01-02T23:34:28.676Z,6.42
2023-01-02T23:37:26.122Z,6.39
2023-01-02T23:40:22.875Z,6.39
2023-01-02T23:43:19.664Z,6.30
2023-01-02T23:46:16.453Z,6.48
2023-01-02T23:49:14.177Z,6.39
2023-01-02T23:52:11.194Z,6.17
2023-01-02T23:55:08.247Z,6.31
2023-01-02T23:58:05.017Z,6.42
